Time;durP1;ratioP1;P1;durP2;ratioP2;P2;SDS_P1;SDS_P2;PMS_P1;PMS_P2;Temp;Humidity;BMP_temperature;BMP_pressure;BME280_temperature;BME280_humidity;BME280_pressure;Samples;Min_cycle;Max_cycle;Signal;HPM_P1;HPM_P2
2023/05/12 00:01:49;;;;;;;;;;;;;;;12.92;42.13;99555.14;107793;1308;22529;-46
2023/05/12 00:04:14;;;;;;;;;;;;;;;12.90;41.90;99551.00;107772;1308;22550;-51
2023/05/12 00:06:39;;;;;;;;;;;;;;;12.86;41.79;99546.48;107756;1308;22453;-48
2023/05/12 00:09:05;;;;;;;;;;;;;;;12.83;42.32;99551.28;107763;1308;23143;-45
2023/05/12 00:11:30;;;;;;;;;;;;;;;12.80;42.13;99551.08;107758;1308;22489;-49
2023/05/12 00:13:55;;;;;;;;;;;;;;;12.77;42.39;99550.93;107760;1308;22458;-47
2023/05/12 00:16:20;;;;;;;;;;;;;;;12.73;42.45;99553.80;107781;1308;24445;-44
2023/05/12 00:18:45;;;;;;;;;;;;;;;12.72;42.22;99557.76;107764;1308;22535;-47
2023/05/12 00:21:11;;;;;;;;;;;;;;;12.69;42.63;99552.25;107782;1305;22527;-48
2023/05/12 00:23:36;;;;;;;;;;;;;;;12.66;42.84;99553.15;107750;1308;23166;-46
2023/05/12 00:26:01;;;;;;;;;;;;;;;12.65;42.55;99553.88;107759;1308;22507;-50
2023/05/12 00:28:27;;;;;;;;;;;;;;;12.61;42.34;99551.13;107732;1308;22539;-50
2023/05/12 00:30:52;;;;;;;;;;;;;;;12.55;42.89;99551.34;107784;1308;22467;-48
2023/05/12 00:33:17;;;;;;;;;;;;;;;12.54;43.06;99550.55;107742;1308;23664;-46
2023/05/12 00:35:44;;;;;;;;;;;;;;;12.51;43.15;99548.58;107755;1308;22627;-46
2023/05/12 00:38:10;;;;;;;;;;;;;;;12.50;43.30;99547.23;107778;1308;22456;-49
2023/05/12 00:40:35;;;;;;;;;;;;;;;12.46;43.66;99545.86;107744;1308;22457;-47
2023/05/12 00:43:00;;;;;;;;;;;;;;;12.45;43.10;99545.79;107748;1308;22482;-50
2023/05/12 00:45:28;;;;;;;;;;;;;;;12.42;43.24;99548.38;107767;1308;23383;-50
2023/05/12 00:47:53;;;;;;;;;;;;;;;12.41;43.06;99547.98;107752;1308;23210;-48
2023/05/12 00:50:19;;;;;;;;;;;;;;;12.35;43.74;99549.16;107743;1308;22591;-51
2023/05/12 00:52:45;;;;;;;;;;;;;;;12.32;44.25;99549.34;107747;1308;22898;-46
2023/05/12 00:55:10;;;;;;;;;;;;;;;12.28;44.45;99551.34;107757;1308;22494;-47
2023/05/12 00:57:36;;;;;;;;;;;;;;;12.25;44.16;99550.98;107742;1308;22734;-45
2023/05/12 01:00:01;;;;;;;;;;;;;;;12.22;44.19;99549.77;107741;1308;23149;-49
2023/05/12 01:02:26;;;;;;;;;;;;;;;12.20;44.35;99554.27;107735;1308;22444;-47
2023/05/12 01:04:52;;;;;;;;;;;;;;;12.15;44.78;99556.65;107741;1308;22439;-48
2023/05/12 01:07:20;;;;;;;;;;;;;;;12.14;45.14;99560.44;107774;1308;22736;-53
2023/05/12 01:09:45;;;;;;;;;;;;;;;12.11;45.11;99563.03;107738;1308;22534;-49
2023/05/12 01:12:10;;;;;;;;;;;;;;;12.11;44.61;99562.35;107765;1308;23418;-47
2023/05/12 01:14:35;;;;;;;;;;;;;;;12.07;45.24;99564.51;107745;1308;23324;-48
2023/05/12 01:17:06;;;;;;;;;;;;;;;12.05;44.66;99563.91;107763;1308;22505;-45
2023/05/12 01:19:42;;;;;;;;;;;;;;;12.00;45.45;99566.30;107739;1308;22489;-51
2023/05/12 01:22:07;;;;;;;;;;;;;;;11.98;45.50;99561.85;107788;1308;22576;-46
2023/05/12 01:24:34;;;;;;;;;;;;;;;11.93;45.37;99563.02;107763;1308;22470;-45
2023/05/12 01:27:00;;;;;;;;;;;;;;;11.93;45.70;99566.54;107748;1308;22487;-47
2023/05/12 01:29:26;;;;;;;;;;;;;;;11.90;45.90;99564.91;107759;1308;22476;-45
2023/05/12 01:31:51;;;;;;;;;;;;;;;11.87;46.09;99565.73;107776;1308;22482;-51
2023/05/12 01:34:19;;;;;;;;;;;;;;;11.86;45.61;99565.27;107765;1308;23362;-43
2023/05/12 01:36:45;;;;;;;;;;;;;;;11.82;46.25;99564.30;107772;1308;22497;-50
2023/05/12 01:39:11;;;;;;;;;;;;;;;11.77;46.62;99567.20;107748;1308;22474;-47
2023/05/12 01:41:36;;;;;;;;;;;;;;;11.74;46.41;99565.99;107758;1308;22486;-51
2023/05/12 01:44:01;;;;;;;;;;;;;;;11.71;46.09;99570.01;107749;1308;22548;-48
2023/05/12 01:46:27;;;;;;;;;;;;;;;11.68;46.46;99571.20;107755;1308;24531;-48
2023/05/12 01:48:52;;;;;;;;;;;;;;;11.68;46.52;99576.52;107769;1308;22452;-44
2023/05/12 01:51:17;;;;;;;;;;;;;;;11.64;46.91;99581.42;107764;1308;22627;-47
2023/05/12 01:53:42;;;;;;;;;;;;;;;11.63;46.94;99580.12;107741;1308;22561;-49
2023/05/12 01:56:07;;;;;;;;;;;;;;;11.61;46.65;99580.76;107760;1308;23217;-44
2023/05/12 01:58:33;;;;;;;;;;;;;;;11.56;46.91;99581.17;107757;1308;23166;-44
2023/05/12 02:00:58;;;;;;;;;;;;;;;11.54;46.89;99582.52;107743;1308;22535;-54
2023/05/12 02:03:23;;;;;;;;;;;;;;;11.51;47.58;99580.94;107768;1308;22565;-46
2023/05/12 02:05:48;;;;;;;;;;;;;;;11.49;46.70;99582.23;107767;1308;23587;-47
2023/05/12 02:08:13;;;;;;;;;;;;;;;11.43;47.37;99583.63;107747;1308;22450;-48
2023/05/12 02:10:39;;;;;;;;;;;;;;;11.38;47.13;99584.08;107749;1308;23256;-49
2023/05/12 02:13:04;;;;;;;;;;;;;;;11.35;47.94;99580.95;107747;1308;22540;-49
2023/05/12 02:15:29;;;;;;;;;;;;;;;11.31;47.97;99583.77;107760;1308;22490;-44
2023/05/12 02:17:54;;;;;;;;;;;;;;;11.28;48.37;99580.91;107771;1308;22581;-48
2023/05/12 02:20:20;;;;;;;;;;;;;;;11.28;48.81;99582.32;107743;1308;22521;-48
2023/05/12 02:22:45;;;;;;;;;;;;;;;11.26;48.69;99581.91;107764;1308;22430;-49
2023/05/12 02:25:10;;;;;;;;;;;;;;;11.25;48.90;99584.96;107769;1308;22543;-54
2023/05/12 02:27:35;;;;;;;;;;;;;;;11.23;48.30;99586.45;107742;1308;22483;-49
2023/05/12 02:30:00;;;;;;;;;;;;;;;11.20;48.59;99591.38;107754;1308;23156;-46
2023/05/12 02:32:27;;;;;;;;;;;;;;;11.19;48.92;99589.30;107773;1306;22460;-48
2023/05/12 02:34:53;;;;;;;;;;;;;;;11.18;48.45;99590.08;107729;1308;23199;-46
2023/05/12 02:37:18;;;;;;;;;;;;;;;11.17;48.27;99591.36;107783;1308;22464;-46
2023/05/12 02:39:44;;;;;;;;;;;;;;;11.15;48.61;99592.68;107750;1308;22574;-46
2023/05/12 02:42:09;;;;;;;;;;;;;;;11.10;49.00;99590.97;107769;1308;22451;-43
2023/05/12 02:44:35;;;;;;;;;;;;;;;11.10;49.30;99592.95;107758;1308;22413;-51
2023/05/12 02:47:00;;;;;;;;;;;;;;;11.10;48.44;99590.48;107738;1308;22440;-49
2023/05/12 02:49:26;;;;;;;;;;;;;;;11.07;48.92;99591.19;107766;1308;22425;-53
2023/05/12 02:51:51;;;;;;;;;;;;;;;11.05;49.48;99589.89;107735;1308;22519;-47
2023/05/12 02:54:16;;;;;;;;;;;;;;;11.05;49.46;99594.57;107754;1308;23495;-50
2023/05/12 02:56:41;;;;;;;;;;;;;;;11.04;49.40;99594.13;107625;1308;183897;-49
2023/05/12 02:59:06;;;;;;;;;;;;;;;11.01;49.16;99590.40;107784;1292;22453;-46
2023/05/12 03:04:08;;;;;;;;;;;;;;;10.99;49.58;99590.20;107307;1308;557150;-49
2023/05/12 03:06:33;;;;;;;;;;;;;;;10.96;49.38;99589.11;107633;1310;22442;-44
2023/05/12 03:08:58;;;;;;;;;;;;;;;10.94;49.63;99592.73;107611;1310;22472;-45
2023/05/12 03:11:24;;;;;;;;;;;;;;;10.93;49.75;99587.35;107639;1310;22461;-46
2023/05/12 03:13:49;;;;;;;;;;;;;;;10.92;50.21;99590.88;107628;1310;24466;-45
2023/05/12 03:16:16;;;;;;;;;;;;;;;10.90;49.87;99587.13;107618;1310;23186;-45
2023/05/12 03:18:41;;;;;;;;;;;;;;;10.87;50.39;99584.69;107735;1308;23139;-49
2023/05/12 03:21:06;;;;;;;;;;;;;;;10.83;49.94;99584.02;107810;1308;22578;-47
2023/05/12 03:23:31;;;;;;;;;;;;;;;10.81;50.72;99580.78;107849;1286;22524;-45
2023/05/12 03:25:57;;;;;;;;;;;;;;;10.81;50.62;99580.40;107835;1308;22451;-52
2023/05/12 03:28:23;;;;;;;;;;;;;;;10.83;50.39;99588.02;107825;1308;22465;-44
2023/05/12 03:30:48;;;;;;;;;;;;;;;10.82;50.32;99586.88;107816;1308;22464;-48
2023/05/12 03:33:13;;;;;;;;;;;;;;;10.81;50.57;99587.63;107842;1308;22438;-49
2023/05/12 03:35:39;;;;;;;;;;;;;;;10.79;50.74;99589.30;107827;1308;22547;-49
2023/05/12 03:38:04;;;;;;;;;;;;;;;10.77;50.80;99586.40;107827;1308;22477;-45
2023/05/12 03:40:29;;;;;;;;;;;;;;;10.76;50.65;99586.97;107839;1308;23201;-43
2023/05/12 03:42:54;;;;;;;;;;;;;;;10.76;50.59;99590.14;107846;1308;22463;-50
2023/05/12 03:45:20;;;;;;;;;;;;;;;10.72;51.50;99591.37;107824;1308;22459;-46
2023/05/12 03:47:45;;;;;;;;;;;;;;;10.73;51.57;99592.40;107820;1308;22469;-46
2023/05/12 03:50:11;;;;;;;;;;;;;;;10.73;51.36;99593.80;107845;1308;23890;-48
2023/05/12 03:52:37;;;;;;;;;;;;;;;10.73;51.34;99592.58;107838;1308;22488;-44
2023/05/12 03:55:02;;;;;;;;;;;;;;;10.73;51.40;99596.26;107840;1308;22450;-49
2023/05/12 03:57:28;;;;;;;;;;;;;;;10.73;51.94;99598.19;107839;1308;22740;-48
2023/05/12 03:59:53;;;;;;;;;;;;;;;10.76;51.88;99601.72;107821;1308;22440;-46
2023/05/12 04:02:18;;;;;;;;;;;;;;;10.77;51.67;99603.77;107820;1308;22459;-44
2023/05/12 04:04:44;;;;;;;;;;;;;;;10.79;51.74;99604.01;107835;1308;22438;-46
2023/05/12 04:07:09;;;;;;;;;;;;;;;10.78;51.46;99600.39;107784;1308;22543;-48
2023/05/12 04:09:34;;;;;;;;;;;;;;;10.75;51.95;99606.66;107842;1308;22477;-48
2023/05/12 04:11:59;;;;;;;;;;;;;;;10.76;52.31;99601.88;107837;1308;23305;-48
2023/05/12 04:14:25;;;;;;;;;;;;;;;10.79;52.42;99606.86;107824;1308;22470;-45
2023/05/12 04:16:50;;;;;;;;;;;;;;;10.78;51.84;99606.00;107845;1308;22469;-43
2023/05/12 04:19:15;;;;;;;;;;;;;;;10.79;52.04;99604.17;107821;1308;22495;-47
2023/05/12 04:21:40;;;;;;;;;;;;;;;10.83;52.06;99609.44;107796;1308;22485;-50
2023/05/12 04:24:05;;;;;;;;;;;;;;;10.86;52.37;99614.00;107807;1308;22455;-43
2023/05/12 04:26:31;;;;;;;;;;;;;;;10.88;52.83;99616.55;107812;1308;22526;-44
2023/05/12 04:28:56;;;;;;;;;;;;;;;10.91;51.90;99617.42;107815;1308;23260;-45
2023/05/12 04:31:21;;;;;;;;;;;;;;;10.93;52.35;99623.48;107809;1308;22469;-49
2023/05/12 04:33:46;;;;;;;;;;;;;;;10.96;51.64;99627.17;107807;1308;22492;-46
2023/05/12 04:36:12;;;;;;;;;;;;;;;10.96;52.30;99628.74;107815;1308;22531;-46
2023/05/12 04:38:38;;;;;;;;;;;;;;;11.00;52.46;99631.15;107840;1308;22455;-51
2023/05/12 04:41:03;;;;;;;;;;;;;;;11.00;52.73;99630.82;107782;1308;22512;-52
2023/05/12 04:43:28;;;;;;;;;;;;;;;11.04;52.59;99628.70;107808;1308;23139;-47
2023/05/12 04:45:54;;;;;;;;;;;;;;;11.04;52.28;99630.25;107817;1308;22480;-47
2023/05/12 04:48:19;;;;;;;;;;;;;;;11.05;52.75;99626.21;107809;1308;22546;-47
2023/05/12 04:50:45;;;;;;;;;;;;;;;11.10;52.70;99633.14;107791;1308;23276;-51
2023/05/12 04:53:11;;;;;;;;;;;;;;;11.16;52.78;99633.02;107816;1308;22460;-50
2023/05/12 04:55:37;;;;;;;;;;;;;;;11.19;53.34;99631.09;107828;1308;22472;-48
2023/05/12 04:58:02;;;;;;;;;;;;;;;11.24;53.39;99634.85;107815;1308;22436;-48
2023/05/12 05:00:28;;;;;;;;;;;;;;;11.28;53.01;99632.00;107822;1308;22473;-49
2023/05/12 05:02:53;;;;;;;;;;;;;;;11.35;53.19;99635.88;107796;1308;22558;-45
2023/05/12 05:05:18;;;;;;;;;;;;;;;11.39;52.13;99631.06;107814;1308;22478;-46
2023/05/12 05:07:43;;;;;;;;;;;;;;;11.41;52.69;99640.29;107802;1308;22469;-50
2023/05/12 05:10:09;;;;;;;;;;;;;;;11.44;52.64;99641.69;107819;1308;22482;-45
2023/05/12 05:12:34;;;;;;;;;;;;;;;11.48;52.58;99642.17;107807;1308;23312;-48
2023/05/12 05:14:59;;;;;;;;;;;;;;;11.52;52.46;99640.73;107820;1308;23301;-48
2023/05/12 05:17:25;;;;;;;;;;;;;;;11.59;52.03;99641.96;107795;1308;22448;-46
2023/05/12 05:19:50;;;;;;;;;;;;;;;11.64;51.60;99643.98;107816;1308;23334;-48
2023/05/12 05:22:15;;;;;;;;;;;;;;;11.68;51.69;99643.23;107782;1308;22478;-51
2023/05/12 05:24:40;;;;;;;;;;;;;;;11.69;51.87;99640.32;107795;1308;22659;-50
2023/05/12 05:27:06;;;;;;;;;;;;;;;11.76;52.14;99643.99;107812;1308;22460;-44
2023/05/12 05:29:31;;;;;;;;;;;;;;;11.83;51.64;99641.88;107798;1308;22560;-47
2023/05/12 05:31:56;;;;;;;;;;;;;;;11.88;52.28;99644.09;107813;1308;22483;-47
2023/05/12 05:34:21;;;;;;;;;;;;;;;11.96;51.43;99643.15;107818;1308;23159;-49
2023/05/12 05:36:47;;;;;;;;;;;;;;;12.02;51.94;99645.63;107812;1308;22481;-50
2023/05/12 05:39:12;;;;;;;;;;;;;;;12.06;52.05;99638.88;107804;1308;23873;-45
2023/05/12 05:41:37;;;;;;;;;;;;;;;12.13;50.72;99640.77;107816;1308;22483;-45
2023/05/12 05:44:02;;;;;;;;;;;;;;;12.19;50.91;99637.81;107795;1308;22919;-47
2023/05/12 05:46:27;;;;;;;;;;;;;;;12.27;50.79;99640.33;107795;1308;22457;-50
2023/05/12 05:48:53;;;;;;;;;;;;;;;12.33;51.12;99641.05;107794;1308;22437;-47
2023/05/12 05:51:18;;;;;;;;;;;;;;;12.39;50.85;99637.92;107829;1308;22537;-44
2023/05/12 05:53:43;;;;;;;;;;;;;;;12.46;50.47;99639.59;107795;1308;22531;-47
2023/05/12 05:56:09;;;;;;;;;;;;;;;12.53;50.41;99646.09;107799;1308;22469;-46
2023/05/12 05:58:34;;;;;;;;;;;;;;;12.59;50.45;99645.55;107642;1308;22461;-50
2023/05/12 06:00:59;;;;;;;;;;;;;;;12.67;50.44;99648.43;107771;1301;22543;-47
2023/05/12 06:03:25;;;;;;;;;;;;;;;12.77;49.64;99643.48;107780;1295;23275;-47
2023/05/12 06:05:50;;;;;;;;;;;;;;;12.82;49.65;99645.11;107634;1302;23148;-45
2023/05/12 06:08:15;;;;;;;;;;;;;;;12.87;49.47;99643.55;107775;1308;22489;-48
2023/05/12 06:10:41;;;;;;;;;;;;;;;12.95;49.60;99646.30;107787;1301;23169;-47
2023/05/12 06:13:07;;;;;;;;;;;;;;;13.01;49.49;99643.45;107746;1297;22484;-52
2023/05/12 06:15:32;;;;;;;;;;;;;;;13.10;49.35;99645.55;107769;1301;22464;-44
2023/05/12 06:17:57;;;;;;;;;;;;;;;13.18;48.78;99645.75;107774;1285;22568;-49
2023/05/12 06:20:23;;;;;;;;;;;;;;;13.24;48.85;99646.81;107799;1304;22460;-47
2023/05/12 06:22:49;;;;;;;;;;;;;;;13.31;48.20;99645.54;107772;1294;22897;-52
2023/05/12 06:25:14;;;;;;;;;;;;;;;13.40;47.86;99643.77;107794;1296;22486;-48
2023/05/12 06:27:39;;;;;;;;;;;;;;;13.48;47.73;99646.77;107778;1308;22422;-50
2023/05/12 06:30:05;;;;;;;;;;;;;;;13.55;47.92;99647.06;107782;1300;22478;-48
2023/05/12 06:32:30;;;;;;;;;;;;;;;13.61;47.78;99644.74;107787;1301;22480;-45
2023/05/12 06:34:55;;;;;;;;;;;;;;;13.67;47.47;99648.81;107791;1301;23153;-51
2023/05/12 06:37:20;;;;;;;;;;;;;;;13.73;47.32;99648.23;107740;1294;22579;-44
2023/05/12 06:39:46;;;;;;;;;;;;;;;13.81;47.02;99651.24;107778;1301;22554;-46
2023/05/12 06:42:11;;;;;;;;;;;;;;;13.89;46.90;99655.90;107780;1304;22489;-47
2023/05/12 06:44:36;;;;;;;;;;;;;;;13.96;47.39;99655.46;107800;1293;22539;-44
2023/05/12 06:47:02;;;;;;;;;;;;;;;14.03;47.34;99661.55;107781;1293;22924;-49
2023/05/12 06:49:27;;;;;;;;;;;;;;;14.10;46.95;99665.14;107789;1302;22740;-48
2023/05/12 06:51:52;;;;;;;;;;;;;;;14.17;46.56;99658.51;107805;1302;23253;-49
2023/05/12 06:54:17;;;;;;;;;;;;;;;14.23;46.22;99660.05;107789;1301;22452;-49
2023/05/12 06:56:42;;;;;;;;;;;;;;;14.31;46.30;99659.35;107786;1292;22457;-47
2023/05/12 06:59:08;;;;;;;;;;;;;;;14.39;45.94;99651.77;107779;1301;22493;-47
2023/05/12 07:01:33;;;;;;;;;;;;;;;14.46;45.97;99659.42;107797;1302;22513;-51
2023/05/12 07:03:58;;;;;;;;;;;;;;;14.55;45.45;99655.70;107797;1301;23421;-48
2023/05/12 07:06:26;;;;;;;;;;;;;;;14.61;45.38;99652.52;107776;1301;23070;-50
2023/05/12 07:08:51;;;;;;;;;;;;;;;14.67;45.24;99650.00;107801;1301;23125;-51
2023/05/12 07:11:18;;;;;;;;;;;;;;;14.74;44.75;99647.55;107797;1295;23361;-48
2023/05/12 07:13:46;;;;;;;;;;;;;;;14.82;44.40;99651.09;107809;1304;22431;-50
2023/05/12 07:16:12;;;;;;;;;;;;;;;14.90;44.17;99652.70;107500;1302;22545;-45
2023/05/12 07:18:37;;;;;;;;;;;;;;;14.98;43.50;99648.98;107790;1302;22487;-45
2023/05/12 07:21:03;;;;;;;;;;;;;;;15.06;43.38;99650.73;107806;1302;22476;-49
2023/05/12 07:23:28;;;;;;;;;;;;;;;15.11;42.92;99651.79;107797;1301;22478;-49
2023/05/12 07:25:53;;;;;;;;;;;;;;;15.17;43.10;99651.91;107777;1302;22993;-51
2023/05/12 07:28:18;;;;;;;;;;;;;;;15.23;42.56;99649.90;107797;1308;22427;-50
2023/05/12 07:30:44;;;;;;;;;;;;;;;15.30;42.78;99651.55;107801;1302;22473;-45
2023/05/12 07:33:09;;;;;;;;;;;;;;;15.37;42.28;99648.25;107796;1295;22655;-40
2023/05/12 07:35:34;;;;;;;;;;;;;;;15.43;42.40;99650.66;107819;1308;23330;-51
2023/05/12 07:38:00;;;;;;;;;;;;;;;15.48;42.15;99650.80;107788;1295;22484;-49
2023/05/12 07:40:25;;;;;;;;;;;;;;;15.53;41.64;99655.06;107801;1295;22476;-46
2023/05/12 07:42:50;;;;;;;;;;;;;;;15.60;41.55;99652.45;107794;1304;22492;-46
2023/05/12 07:45:21;;;;;;;;;;;;;;;15.67;40.86;99650.91;107824;1308;22452;-53
2023/05/12 07:47:47;;;;;;;;;;;;;;;15.74;40.60;99648.33;107779;1308;22518;-50
2023/05/12 07:50:12;;;;;;;;;;;;;;;15.81;40.57;99655.11;107823;1301;22694;-50
2023/05/12 07:52:44;;;;;;;;;;;;;;;15.87;40.31;99649.04;107781;1301;24446;-50
2023/05/12 07:55:10;;;;;;;;;;;;;;;15.94;40.36;99646.55;107805;1301;22481;-49
2023/05/12 07:57:35;;;;;;;;;;;;;;;16.01;40.04;99649.92;107815;1304;22602;-47
2023/05/12 08:00:00;;;;;;;;;;;;;;;16.11;39.72;99645.17;107792;1308;22605;-51
2023/05/12 08:02:25;;;;;;;;;;;;;;;16.22;39.84;99648.58;107711;1302;25109;-47
2023/05/12 08:04:51;;;;;;;;;;;;;;;16.31;39.28;99645.14;107777;1301;23301;-50
2023/05/12 08:07:16;;;;;;;;;;;;;;;16.38;39.08;99646.40;107404;1308;23202;-51
2023/05/12 08:09:41;;;;;;;;;;;;;;;16.45;38.61;99642.47;107804;1295;22498;-45
2023/05/12 08:12:06;;;;;;;;;;;;;;;16.55;38.93;99647.66;107819;1301;23233;-50
2023/05/12 08:14:32;;;;;;;;;;;;;;;16.65;38.64;99647.23;107792;1295;23306;-46
2023/05/12 08:16:57;;;;;;;;;;;;;;;16.74;37.44;99648.89;107797;1298;23646;-46
2023/05/12 08:19:22;;;;;;;;;;;;;;;16.82;37.41;99649.84;107790;1301;23186;-45
2023/05/12 08:21:47;;;;;;;;;;;;;;;16.94;37.59;99655.86;107814;1295;22486;-49
2023/05/12 08:24:13;;;;;;;;;;;;;;;17.04;37.21;99647.48;107768;1295;22449;-47
2023/05/12 08:26:38;;;;;;;;;;;;;;;17.13;36.74;99650.35;107797;1302;22474;-50
2023/05/12 08:29:05;;;;;;;;;;;;;;;17.21;35.71;99645.80;107782;1292;23426;-47
2023/05/12 08:31:30;;;;;;;;;;;;;;;17.29;35.45;99645.79;107803;1301;22504;-52
2023/05/12 08:33:55;;;;;;;;;;;;;;;17.36;35.18;99648.38;107826;1304;22448;-46
2023/05/12 08:36:21;;;;;;;;;;;;;;;17.49;35.91;99648.97;107796;1308;22440;-47
2023/05/12 08:38:46;;;;;;;;;;;;;;;17.63;35.87;99652.73;107762;1295;22461;-49
2023/05/12 08:41:29;;;;;;;;;;;;;;;17.72;34.21;99656.76;107815;1292;23278;-47
2023/05/12 08:43:55;;;;;;;;;;;;;;;17.87;34.91;99656.15;107785;1295;22444;-46
2023/05/12 08:46:21;;;;;;;;;;;;;;;18.10;34.95;99652.52;107795;1308;22448;-48
2023/05/12 08:48:49;;;;;;;;;;;;;;;18.27;34.03;99658.57;107812;1308;22456;-47
2023/05/12 08:51:14;;;;;;;;;;;;;;;18.44;33.98;99650.65;107798;1295;23280;-48
2023/05/12 08:53:41;;;;;;;;;;;;;;;18.64;34.13;99652.34;107790;1295;22452;-50
2023/05/12 08:56:07;;;;;;;;;;;;;;;18.84;33.51;99657.86;107809;1308;22449;-49
2023/05/12 08:58:33;;;;;;;;;;;;;;;19.03;32.52;99661.91;107788;1301;22457;-50
2023/05/12 09:00:58;;;;;;;;;;;;;;;19.26;32.46;99660.88;107798;1308;22508;-46
2023/05/12 09:03:25;;;;;;;;;;;;;;;19.51;32.50;99654.67;107820;1308;22542;-44
2023/05/12 09:05:51;;;;;;;;;;;;;;;19.76;32.03;99661.17;107811;1295;22458;-52
2023/05/12 09:08:16;;;;;;;;;;;;;;;19.94;30.78;99665.00;107802;1304;22582;-47
2023/05/12 09:10:42;;;;;;;;;;;;;;;20.08;31.15;99661.21;107755;1293;23309;-43
2023/05/12 09:13:10;;;;;;;;;;;;;;;20.23;30.26;99665.75;107776;1302;22538;-49
2023/05/12 09:15:38;;;;;;;;;;;;;;;20.49;30.65;99669.52;107803;1301;22400;-47
2023/05/12 09:18:03;;;;;;;;;;;;;;;20.79;29.88;99660.16;107785;1301;23115;-45
2023/05/12 09:20:28;;;;;;;;;;;;;;;21.12;29.16;99658.75;107826;1295;22443;-49
2023/05/12 09:22:56;;;;;;;;;;;;;;;21.48;29.04;99657.20;107832;1305;23397;-45
2023/05/12 09:25:22;;;;;;;;;;;;;;;21.90;28.26;99654.71;107776;1293;22468;-47
2023/05/12 09:27:48;;;;;;;;;;;;;;;22.48;28.44;99666.08;107807;1293;23249;-47
2023/05/12 09:30:14;;;;;;;;;;;;;;;22.98;28.67;99658.10;107785;1295;22510;-47
2023/05/12 09:32:39;;;;;;;;;;;;;;;23.55;28.78;99654.70;107812;1295;22516;-46
2023/05/12 09:35:05;;;;;;;;;;;;;;;24.04;27.46;99662.33;107835;1295;23248;-48
2023/05/12 09:37:31;;;;;;;;;;;;;;;24.47;25.88;99662.27;107829;1295;22457;-47
2023/05/12 09:40:00;;;;;;;;;;;;;;;24.83;25.95;99649.46;107805;1295;22442;-44
2023/05/12 09:42:28;;;;;;;;;;;;;;;25.10;24.40;99653.25;107805;1301;22434;-45
2023/05/12 09:44:57;;;;;;;;;;;;;;;25.27;24.10;99655.94;107804;1295;22452;-45
2023/05/12 09:47:25;;;;;;;;;;;;;;;25.78;23.55;99667.09;107778;1301;22450;-45
2023/05/12 09:49:51;;;;;;;;;;;;;;;26.23;23.35;99672.19;107819;1304;22533;-46
2023/05/12 09:52:19;;;;;;;;;;;;;;;26.47;22.57;99670.70;107834;1297;22432;-45
2023/05/12 09:54:46;;;;;;;;;;;;;;;26.64;21.74;99674.31;107724;1301;22483;-51
2023/05/12 09:57:14;;;;;;;;;;;;;;;26.96;21.71;99674.95;107790;1295;22470;-47
2023/05/12 09:59:42;;;;;;;;;;;;;;;27.29;20.83;99667.36;107835;1304;23225;-45
2023/05/12 10:02:08;;;;;;;;;;;;;;;27.54;20.50;99662.60;107824;1302;22438;-49
2023/05/12 10:04:41;;;;;;;;;;;;;;;27.74;20.59;99668.11;107732;1295;22438;-47
2023/05/12 10:07:08;;;;;;;;;;;;;;;28.13;21.02;99668.05;107749;1295;22473;-50
2023/05/12 10:09:38;;;;;;;;;;;;;;;28.26;19.40;99671.66;107821;1295;22411;-50
2023/05/12 10:12:03;;;;;;;;;;;;;;;28.42;19.45;99672.09;107827;1301;22502;-47
2023/05/12 10:14:28;;;;;;;;;;;;;;;28.62;19.97;99676.39;107805;1301;22454;-48
2023/05/12 10:16:54;;;;;;;;;;;;;;;28.85;19.78;99675.34;107828;1304;22422;-47
2023/05/12 10:19:20;;;;;;;;;;;;;;;28.86;18.96;99678.16;107833;1293;22491;-47
2023/05/12 10:21:45;;;;;;;;;;;;;;;29.28;19.38;99670.89;107830;1308;22439;-46
2023/05/12 10:24:13;;;;;;;;;;;;;;;29.67;19.58;99665.67;107797;1294;22429;-48
2023/05/12 10:26:38;;;;;;;;;;;;;;;29.86;18.46;99666.21;107798;1308;23246;-46
2023/05/12 10:29:04;;;;;;;;;;;;;;;29.81;17.97;99667.13;107798;1304;23201;-48
2023/05/12 10:31:30;;;;;;;;;;;;;;;29.97;17.84;99661.58;107782;1295;23742;-49
2023/05/12 10:33:57;;;;;;;;;;;;;;;30.30;17.69;99660.12;107790;1292;22486;-47
2023/05/12 10:36:22;;;;;;;;;;;;;;;30.32;17.24;99662.21;107797;1301;22416;-46
2023/05/12 10:38:50;;;;;;;;;;;;;;;30.45;17.97;99664.46;107820;1301;22551;-47
2023/05/12 10:41:16;;;;;;;;;;;;;;;30.78;18.19;99669.67;107798;1294;22444;-45
2023/05/12 10:43:48;;;;;;;;;;;;;;;30.80;17.50;99667.72;107785;1308;22571;-46
2023/05/12 10:46:15;;;;;;;;;;;;;;;30.70;17.33;99665.77;107812;1308;22743;-47
2023/05/12 10:48:59;;;;;;;;;;;;;;;30.91;17.31;99663.08;107821;1295;22510;-49
2023/05/12 10:51:25;;;;;;;;;;;;;;;31.00;17.18;99669.48;107769;1295;23394;-49
2023/05/12 10:54:01;;;;;;;;;;;;;;;31.27;17.15;99669.98;107806;1297;22460;-48
2023/05/12 10:56:27;;;;;;;;;;;;;;;31.72;17.53;99658.48;107818;1295;23041;-47
2023/05/12 10:59:11;;;;;;;;;;;;;;;31.57;16.42;99669.69;107762;1304;22486;-46
2023/05/12 11:01:37;;;;;;;;;;;;;;;31.25;16.67;99670.70;107803;1295;22431;-44
2023/05/12 11:04:13;;;;;;;;;;;;;;;31.29;16.72;99669.64;107817;1295;22466;-46
2023/05/12 11:06:39;;;;;;;;;;;;;;;30.98;16.45;99666.92;107785;1295;22574;-45
2023/05/12 11:09:04;;;;;;;;;;;;;;;31.20;16.69;99667.81;107794;1295;22482;-46
2023/05/12 11:11:30;;;;;;;;;;;;;;;31.34;16.54;99664.95;107777;1301;23270;-43
2023/05/12 11:13:56;;;;;;;;;;;;;;;31.11;16.14;99665.63;107796;1301;22847;-47
2023/05/12 11:16:21;;;;;;;;;;;;;;;31.01;15.90;99671.06;107788;1301;23344;-44
2023/05/12 11:18:47;;;;;;;;;;;;;;;31.42;16.22;99665.30;107766;1295;23697;-48
2023/05/12 11:21:13;;;;;;;;;;;;;;;31.36;16.33;99670.73;107806;1308;22432;-48
2023/05/12 11:23:38;;;;;;;;;;;;;;;31.81;16.61;99666.33;107824;1301;22504;-49
2023/05/12 11:26:06;;;;;;;;;;;;;;;32.01;15.72;99672.12;107815;1301;22457;-51
2023/05/12 11:28:40;;;;;;;;;;;;;;;32.21;15.80;99675.52;107796;1308;22473;-48
2023/05/12 11:31:06;;;;;;;;;;;;;;;32.53;15.62;99669.91;107796;1286;22418;-47
2023/05/12 11:33:31;;;;;;;;;;;;;;;32.81;15.23;99673.17;107812;1302;22525;-46
2023/05/12 11:35:56;;;;;;;;;;;;;;;33.09;15.16;99673.88;107800;1301;22429;-49
2023/05/12 11:38:23;;;;;;;;;;;;;;;33.57;15.06;99666.39;107801;1295;22474;-45
2023/05/12 11:40:48;;;;;;;;;;;;;;;33.67;14.68;99673.03;107809;1295;22442;-45
2023/05/12 11:43:18;;;;;;;;;;;;;;;32.70;14.64;99676.07;107813;1301;22450;-46
2023/05/12 11:45:44;;;;;;;;;;;;;;;31.96;15.36;99668.38;107799;1298;22387;-46
2023/05/12 11:48:10;;;;;;;;;;;;;;;31.43;15.47;99676.35;107795;1303;22543;-47
2023/05/12 11:50:37;;;;;;;;;;;;;;;30.75;15.69;99676.89;107812;1295;23397;-49
2023/05/12 11:53:02;;;;;;;;;;;;;;;30.20;16.46;99669.18;107791;1304;22470;-49
2023/05/12 11:55:27;;;;;;;;;;;;;;;30.69;16.18;99668.11;107811;1301;22498;-47
2023/05/12 11:57:57;;;;;;;;;;;;;;;31.17;16.02;99668.73;107785;1308;22436;-50
2023/05/12 12:00:30;;;;;;;;;;;;;;;31.45;15.28;99678.15;107818;1308;22448;-46
2023/05/12 12:03:05;;;;;;;;;;;;;;;32.11;15.20;99680.48;107798;1298;22477;-44
2023/05/12 12:05:30;;;;;;;;;;;;;;;32.51;14.37;99674.95;107799;1308;23195;-48
2023/05/12 12:08:03;;;;;;;;;;;;;;;33.13;14.32;99679.55;107789;1308;22452;-50
2023/05/12 12:10:28;;;;;;;;;;;;;;;33.39;13.90;99673.85;107781;1304;22799;-47
2023/05/12 12:12:53;;;;;;;;;;;;;;;33.19;13.49;99677.58;107806;1302;23115;-49
2023/05/12 12:15:18;;;;;;;;;;;;;;;33.26;13.58;99673.88;107796;1298;23306;-48
2023/05/12 12:17:43;;;;;;;;;;;;;;;33.60;13.77;99676.02;107811;1304;22446;-45
2023/05/12 12:20:09;;;;;;;;;;;;;;;33.57;13.31;99673.77;107811;1295;22458;-48
2023/05/12 12:22:34;;;;;;;;;;;;;;;33.77;13.25;99673.10;107794;1302;22444;-49
2023/05/12 12:25:00;;;;;;;;;;;;;;;33.90;13.33;99671.64;107808;1298;22528;-46
2023/05/12 12:27:25;;;;;;;;;;;;;;;33.79;13.40;99676.38;107819;1292;23357;-44
2023/05/12 12:29:50;;;;;;;;;;;;;;;33.57;13.14;99676.75;107758;1304;22399;-44
2023/05/12 12:32:16;;;;;;;;;;;;;;;33.22;13.37;99670.36;107306;1308;22494;-45